Time;durP1;ratioP1;P1;durP2;ratioP2;P2;SDS_P1;SDS_P2;PMS_P1;PMS_P2;Temp;Humidity;BMP_temperature;BMP_pressure;BME280_temperature;BME280_humidity;BME280_pressure;Samples;Min_cycle;Max_cycle;Signal;HPM_P1;HPM_P2
2021/10/09 00:01:35;;;;;;;14.50;8.88;;;;;;;6.80;69.60;100517.71;1601940;88;20959;-66
2021/10/09 00:04:03;;;;;;;16.60;7.97;;;;;;;6.79;69.94;100514.62;1603903;88;21128;-66
2021/10/09 00:06:31;;;;;;;15.25;7.33;;;;;;;6.77;70.08;100517.20;1575203;88;20939;-65
2021/10/09 00:08:59;;;;;;;18.45;8.00;;;;;;;6.75;70.08;100516.26;1599065;88;21102;-66
2021/10/09 00:11:39;;;;;;;18.52;7.42;;;;;;;6.73;70.32;100511.39;1599579;88;20987;-66
2021/10/09 00:14:08;;;;;;;16.25;7.35;;;;;;;6.72;70.62;100513.97;1601483;88;20987;-66
2021/10/09 00:16:37;;;;;;;13.18;7.00;;;;;;;6.70;70.79;100511.72;1603618;88;21512;-66
2021/10/09 00:19:05;;;;;;;17.42;8.23;;;;;;;6.69;71.17;100515.18;1602899;88;20979;-66
2021/10/09 00:21:33;;;;;;;14.53;8.05;;;;;;;6.68;71.45;100516.91;1586540;88;21077;-66
2021/10/09 00:24:00;;;;;;;15.35;7.30;;;;;;;6.67;71.60;100515.13;1603752;88;21142;-66
2021/10/09 00:26:28;;;;;;;16.52;8.05;;;;;;;6.67;71.67;100516.86;1603649;88;21039;-65
2021/10/09 00:28:57;;;;;;;15.20;6.22;;;;;;;6.65;71.87;100507.64;1603003;88;21451;-65
2021/10/09 00:31:25;;;;;;;15.85;7.05;;;;;;;6.65;71.96;100512.88;1603293;88;20983;-66
2021/10/09 00:33:52;;;;;;;13.53;6.35;;;;;;;6.66;72.11;100512.46;1602880;88;21047;-65
2021/10/09 00:36:20;;;;;;;13.65;7.50;;;;;;;6.65;72.27;100507.64;1602217;89;20972;-66
2021/10/09 00:38:48;;;;;;;14.15;7.22;;;;;;;6.65;72.43;100511.99;1603684;88;20987;-65
2021/10/09 00:41:16;;;;;;;14.43;7.35;;;;;;;6.64;72.56;100509.80;1603961;88;21148;-67
2021/10/09 00:43:43;;;;;;;16.70;7.62;;;;;;;6.64;72.60;100512.42;1601911;88;21498;-65
2021/10/09 00:46:12;;;;;;;13.58;7.05;;;;;;;6.65;72.55;100506.75;1604000;88;20987;-66
2021/10/09 00:48:40;;;;;;;15.88;7.40;;;;;;;6.63;72.66;100507.59;1602513;89;21490;-65
2021/10/09 00:51:08;;;;;;;15.93;7.35;;;;;;;6.64;72.73;100516.34;1603709;88;20956;-65
2021/10/09 00:53:37;;;;;;;15.98;6.90;;;;;;;6.63;72.74;100513.26;1603117;88;21968;-64
2021/10/09 00:56:05;;;;;;;14.25;7.22;;;;;;;6.64;72.78;100509.80;1603603;88;20943;-65
2021/10/09 00:58:33;;;;;;;12.98;7.45;;;;;;;6.65;72.91;100508.06;1603694;88;21196;-65
2021/10/09 01:01:01;;;;;;;14.98;6.60;;;;;;;6.65;73.07;100507.64;1603682;88;21521;-65
2021/10/09 01:03:30;;;;;;;18.30;6.80;;;;;;;6.65;72.91;100508.95;1594234;88;20984;-64
2021/10/09 01:05:58;;;;;;;12.18;6.72;;;;;;;6.66;72.77;100512.46;1573550;90;21502;-65
2021/10/09 01:08:27;;;;;;;14.87;6.80;;;;;;;6.63;73.01;100507.59;1592335;88;21494;-66
2021/10/09 01:10:56;;;;;;;15.68;6.75;;;;;;;6.65;73.26;100510.69;1593036;88;20923;-66
2021/10/09 01:13:24;;;;;;;14.28;6.58;;;;;;;6.65;73.51;100508.95;1596524;88;21048;-66
2021/10/09 01:15:52;;;;;;;18.20;6.65;;;;;;;6.67;73.52;100493.27;1594531;89;21451;-66
2021/10/09 01:18:20;;;;;;;13.28;6.17;;;;;;;6.66;73.37;100495.42;1592381;88;21105;-66
2021/10/09 01:20:55;;;;;;;13.30;7.05;;;;;;;6.67;73.48;100498.51;1592861;88;21434;-66
2021/10/09 01:23:25;;;;;;;17.80;7.87;;;;;;;6.67;73.76;100490.64;1598120;87;21010;-66
2021/10/09 01:25:53;;;;;;;19.25;7.87;;;;;;;6.68;73.94;100493.31;1597597;88;21110;-66
2021/10/09 01:28:23;;;;;;;14.65;7.15;;;;;;;6.68;74.02;100489.38;1594540;87;21423;-66
2021/10/09 01:30:56;;;;;;;13.95;6.70;;;;;;;6.69;74.12;100491.58;1596080;88;21443;-67
2021/10/09 01:33:25;;;;;;;13.35;7.10;;;;;;;6.69;74.36;100495.09;1597225;88;21572;-65
2021/10/09 01:35:56;;;;;;;17.60;6.60;;;;;;;6.69;74.54;100488.54;1597415;88;20961;-65
2021/10/09 01:38:27;;;;;;;14.05;6.00;;;;;;;6.69;74.58;100489.84;1591618;88;20987;-65
2021/10/09 01:40:56;;;;;;;16.35;6.35;;;;;;;6.70;74.62;100493.36;1576108;88;21003;-65
2021/10/09 01:43:25;;;;;;;13.10;6.10;;;;;;;6.69;74.66;100494.20;1594397;88;21132;-65
2021/10/09 01:45:53;;;;;;;17.82;7.10;;;;;;;6.68;74.71;100493.31;1590120;87;21483;-64
2021/10/09 01:48:40;;;;;;;17.52;6.92;;;;;;;6.67;74.63;100491.53;1596597;87;21064;-65
2021/10/09 01:51:09;;;;;;;13.93;6.62;;;;;;;6.67;74.70;100490.22;1596312;88;21221;-65
2021/10/09 01:53:40;;;;;;;13.13;6.70;;;;;;;6.65;74.55;100486.66;1593251;87;20994;-66
2021/10/09 01:56:08;;;;;;;15.60;6.42;;;;;;;6.65;74.80;100491.91;1595782;88;21108;-65
2021/10/09 01:58:37;;;;;;;14.00;6.55;;;;;;;6.63;74.95;100487.93;1597004;88;20948;-64
2021/10/09 02:01:07;;;;;;;11.65;6.12;;;;;;;6.63;75.00;100486.62;1596908;88;20999;-64
2021/10/09 02:03:36;;;;;;;12.80;6.58;;;;;;;6.63;74.92;100490.97;1581818;88;21031;-64
2021/10/09 02:06:04;;;;;;;13.18;6.80;;;;;;;6.62;75.04;100483.91;1603624;88;20999;-64
2021/10/09 02:08:33;;;;;;;15.05;6.20;;;;;;;6.62;75.27;100478.67;1603355;88;21106;-64
2021/10/09 02:11:04;;;;;;;14.90;6.67;;;;;;;6.61;75.19;100487.38;1602811;88;21450;-64
2021/10/09 02:13:41;;;;;;;12.95;6.25;;;;;;;6.60;75.20;100479.05;1603528;88;21489;-64
2021/10/09 02:24:43;;;;;;;21.27;6.97;;;;;;;6.56;75.80;100478.48;1596089;88;20972;-64
2021/10/09 02:26:59;;;;;;;17.37;6.50;;;;;;;6.54;75.98;100479.75;1600922;88;21062;-64
2021/10/09 02:29:27;;;;;;;11.83;6.20;;;;;;;6.53;76.15;100481.01;1603356;88;20931;-64
2021/10/09 02:31:57;;;;;;;13.75;6.47;;;;;;;6.51;76.35;100484.89;1585579;88;21485;-64
2021/10/09 02:34:25;;;;;;;18.15;6.40;;;;;;;6.51;76.53;100473.52;1603712;88;21126;-63
2021/10/09 02:36:53;;;;;;;14.15;6.65;;;;;;;6.49;76.73;100484.37;1602704;88;20996;-64
2021/10/09 02:39:23;;;;;;;12.23;6.33;;;;;;;6.47;76.70;100486.06;1579003;88;20977;-62
2021/10/09 02:41:55;;;;;;;15.10;6.45;;;;;;;6.47;77.09;100492.19;1601525;88;21023;-62
2021/10/09 02:44:25;;;;;;;12.07;6.53;;;;;;;6.46;77.41;100486.48;1603914;88;21016;-64
2021/10/09 02:46:53;;;;;;;14.25;6.87;;;;;;;6.47;77.68;100484.75;1603095;88;21496;-62
2021/10/09 02:49:21;;;;;;;11.57;6.40;;;;;;;6.46;77.82;100493.45;1602960;88;21474;-62
2021/10/09 02:51:51;;;;;;;27.98;8.70;;;;;;;6.45;77.63;100490.36;1603580;88;21513;-61
2021/10/09 02:54:21;;;;;;;14.90;7.55;;;;;;;6.41;77.49;100499.86;1602324;88;21541;-62
2021/10/09 02:56:49;;;;;;;15.32;6.78;;;;;;;6.38;77.52;100491.02;1602706;88;21088;-63
2021/10/09 02:59:16;;;;;;;16.07;7.28;;;;;;;6.35;77.77;100485.25;1603021;89;21104;-63
2021/10/09 03:01:44;;;;;;;15.53;6.92;;;;;;;6.35;77.99;100489.61;1602275;88;20972;-63
2021/10/09 03:04:12;;;;;;;12.58;6.55;;;;;;;6.35;78.13;100492.23;1584518;89;21025;-63
2021/10/09 03:06:42;;;;;;;11.60;7.03;;;;;;;6.33;78.29;100483.42;1601917;89;21428;-64
2021/10/09 03:09:12;;;;;;;17.27;7.87;;;;;;;6.30;78.43;100484.22;1602829;89;20992;-63
2021/10/09 03:11:42;;;;;;;13.53;7.28;;;;;;;6.27;78.48;100485.01;1601638;89;21427;-64
2021/10/09 03:14:09;;;;;;;14.43;6.87;;;;;;;6.24;78.58;100488.84;1602449;89;20952;-63
2021/10/09 03:16:37;;;;;;;15.68;6.80;;;;;;;6.22;78.93;100487.91;1603319;88;21474;-64
2021/10/09 03:19:05;;;;;;;12.70;7.12;;;;;;;6.22;79.19;100489.62;1585388;89;21527;-64
2021/10/09 03:21:33;;;;;;;14.33;7.20;;;;;;;6.20;79.38;100484.77;1590594;90;20935;-64
2021/10/09 03:24:02;;;;;;;17.62;7.20;;;;;;;6.18;79.67;100485.13;1600610;88;21102;-64
2021/10/09 03:26:30;;;;;;;13.22;6.95;;;;;;;6.16;80.10;100480.27;1601772;88;21518;-64
2021/10/09 03:28:58;;;;;;;18.98;7.80;;;;;;;6.15;80.49;100481.06;1603539;88;21493;-64
2021/10/09 03:31:28;;;;;;;21.42;8.10;;;;;;;6.15;80.78;100475.83;1603660;88;20942;-64
2021/10/09 03:33:56;;;;;;;13.25;6.92;;;;;;;6.13;81.13;100476.20;1603937;88;21012;-63
2021/10/09 03:36:24;;;;;;;13.25;7.67;;;;;;;6.12;81.44;100471.37;1603366;88;21139;-63
2021/10/09 03:38:53;;;;;;;13.83;7.83;;;;;;;6.12;81.86;100474.00;1600932;88;20955;-63
2021/10/09 03:41:21;;;;;;;12.73;7.60;;;;;;;6.11;82.30;100473.53;1585171;88;21609;-63
2021/10/09 03:43:49;;;;;;;13.62;6.92;;;;;;;6.12;82.55;100467.45;1603868;88;20942;-63
2021/10/09 03:46:30;;;;;;;12.00;7.20;;;;;;;6.10;82.83;100470.44;1602625;88;21023;-63
2021/10/09 03:49:18;;;;;;;11.53;7.25;;;;;;;6.10;83.18;100474.37;1603900;88;21114;-64
2021/10/09 03:54:20;;;;;;;14.47;8.13;;;;;;;6.07;83.44;100478.62;1603817;88;20972;-64
2021/10/09 03:56:47;;;;;;;16.12;8.60;;;;;;;6.07;83.63;100483.86;1602659;88;20936;-64
2021/10/09 03:59:16;;;;;;;19.35;7.33;;;;;;;6.08;83.97;100483.02;1603198;88;20996;-63
2021/10/09 04:01:48;;;;;;;14.55;6.92;;;;;;;6.06;84.28;100472.91;1583814;88;21466;-64
2021/10/09 04:04:17;;;;;;;24.18;7.12;;;;;;;6.06;84.57;100473.80;1594718;88;20923;-64
2021/10/09 04:06:46;;;;;;;14.10;7.40;;;;;;;6.05;84.79;100477.67;1593502;88;21490;-62
2021/10/09 04:09:13;;;;;;;15.08;7.45;;;;;;;6.05;85.11;100476.37;1580752;89;20964;-62
2021/10/09 04:11:42;;;;;;;15.32;7.50;;;;;;;6.04;85.31;100482.45;1597702;89;20909;-64
2021/10/09 04:14:12;;;;;;;17.40;8.25;;;;;;;6.04;85.65;100478.52;1592251;88;21103;-64
2021/10/09 04:16:42;;;;;;;17.02;7.37;;;;;;;6.04;85.95;100478.09;1592508;88;20928;-64
2021/10/09 04:19:12;;;;;;;13.70;7.55;;;;;;;6.04;86.09;100477.21;1592675;88;21573;-64
2021/10/09 04:21:42;;;;;;;13.78;7.12;;;;;;;6.04;86.34;100482.03;1592255;88;20931;-64
2021/10/09 04:24:09;;;;;;;37.23;9.45;;;;;;;6.03;86.69;100476.73;1592671;88;20940;-64
2021/10/09 04:26:38;;;;;;;21.50;8.53;;;;;;;6.02;87.05;100481.51;1592626;88;21175;-64
2021/10/09 04:29:06;;;;;;;21.52;7.87;;;;;;;6.01;87.42;100483.23;1592487;88;21454;-65
2021/10/09 04:31:36;;;;;;;18.35;7.25;;;;;;;6.00;87.72;100487.58;1573199;90;20992;-63
2021/10/09 04:34:04;;;;;;;22.20;7.87;;;;;;;6.00;88.02;100491.52;1593928;89;21491;-64
2021/10/09 04:36:34;;;;;;;15.95;7.37;;;;;;;6.00;88.29;100496.75;1594588;88;21395;-64
2021/10/09 04:39:02;;;;;;;11.48;7.10;;;;;;;6.00;88.31;100500.68;1594489;90;21032;-64
2021/10/09 04:41:31;;;;;;;19.23;7.90;;;;;;;6.00;88.55;100507.65;1594209;89;21467;-64
2021/10/09 04:44:01;;;;;;;13.75;7.42;;;;;;;6.02;88.83;100501.16;1574833;90;21507;-64
2021/10/09 04:46:33;;;;;;;17.70;7.70;;;;;;;6.01;88.92;100504.19;1573925;90;20936;-64
2021/10/09 04:49:02;;;;;;;19.27;7.53;;;;;;;6.01;89.13;100501.57;1572845;89;21015;-63
2021/10/09 04:51:31;;;;;;;15.83;7.28;;;;;;;6.03;89.53;100502.93;1593504;88;22103;-63
2021/10/09 04:54:00;;;;;;;20.12;7.80;;;;;;;6.03;89.71;100502.52;1592323;88;20932;-64
2021/10/09 04:56:28;;;;;;;14.00;8.25;;;;;;;6.03;90.01;100502.52;1599619;87;21621;-63
2021/10/09 04:58:58;;;;;;;17.75;8.08;;;;;;;6.04;90.15;100495.13;1601321;88;21053;-64
2021/10/09 05:01:27;;;;;;;19.42;7.80;;;;;;;6.04;90.36;100496.44;1601138;88;20986;-64
2021/10/09 05:03:57;;;;;;;16.37;7.58;;;;;;;6.05;90.67;100499.94;1596523;88;21467;-64
2021/10/09 05:06:25;;;;;;;15.72;7.47;;;;;;;6.07;90.93;100502.19;1590715;89;20931;-65
2021/10/09 05:08:54;;;;;;;17.62;7.65;;;;;;;6.09;91.08;100507.95;1590811;89;21017;-65
2021/10/09 05:11:23;;;;;;;19.87;8.50;;;;;;;6.10;91.01;100500.56;1590614;89;20931;-64
2021/10/09 05:13:52;;;;;;;21.55;7.90;;;;;;;6.10;90.94;100497.05;1569363;89;21000;-63
2021/10/09 05:16:21;;;;;;;19.52;8.13;;;;;;;6.12;90.72;100500.20;1563462;90;21093;-63
2021/10/09 05:18:50;;;;;;;15.60;8.18;;;;;;;6.15;91.01;100507.27;1544209;90;21480;-63
2021/10/09 05:21:18;;;;;;;15.55;6.70;;;;;;;6.17;91.34;100509.55;1563554;90;20981;-64
2021/10/09 05:23:46;;;;;;;14.50;7.58;;;;;;;6.19;91.41;100514.42;1550860;91;20989;-63
2021/10/09 05:26:15;;;;;;;14.33;7.22;;;;;;;6.23;91.31;100516.30;1551238;91;21656;-64
2021/10/09 05:28:48;;;;;;;16.10;8.55;;;;;;;6.23;91.09;100515.88;1569943;91;21131;-64
2021/10/09 05:31:25;;;;;;;15.48;7.62;;;;;;;6.24;90.78;100521.59;1589366;89;21518;-64
2021/10/09 05:33:53;;;;;;;14.93;7.28;;;;;;;6.26;91.00;100515.98;1576794;89;20926;-63
2021/10/09 05:36:23;;;;;;;22.37;7.72;;;;;;;6.29;91.07;100516.50;1568642;90;21468;-63
2021/10/09 05:38:52;;;;;;;15.80;7.83;;;;;;;6.35;91.49;100518.02;1568035;91;21488;-63
2021/10/09 05:41:20;;;;;;;31.25;7.92;;;;;;;6.42;91.58;100521.30;1550169;91;21114;-63
2021/10/09 05:43:50;;;;;;;16.35;7.90;;;;;;;6.50;91.84;100519.81;1578021;89;21485;-64
2021/10/09 05:46:20;;;;;;;19.40;8.10;;;;;;;6.58;91.87;100521.37;1586942;89;21066;-64
2021/10/09 05:48:50;;;;;;;15.95;7.67;;;;;;;6.63;90.96;100525.05;1543912;92;21012;-64
2021/10/09 05:51:21;;;;;;;20.50;8.90;;;;;;;6.67;90.20;100525.63;1559962;90;21040;-64
2021/10/09 05:56:28;;;;;;;42.38;10.50;;;;;;;6.72;88.79;100522.72;1542799;92;20940;-63
2021/10/09 05:59:06;;;;;;;18.32;8.35;;;;;;;6.76;88.36;100525.02;1542261;92;21029;-63
2021/10/09 06:01:45;;;;;;;18.87;9.40;;;;;;;6.78;88.05;100524.22;1562172;90;21038;-64
2021/10/09 06:47:27;;;;;;;23.15;9.20;;;;;;;8.34;76.81;100527.36;1612325;88;21107;-66
2021/10/09 07:00:59;;;;;;;25.12;7.97;;;;;;;8.88;69.85;100533.48;1607323;88;21118;-64
2021/10/09 07:03:29;;;;;;;50.78;10.10;;;;;;;8.94;67.98;100529.68;1610762;87;20945;-63
2021/10/09 07:05:59;;;;;;;19.35;8.45;;;;;;;9.02;66.85;100532.09;1595852;88;20968;-63
2021/10/09 07:08:32;;;;;;;20.48;7.25;;;;;;;9.11;65.58;100524.39;1599247;88;20900;-64
2021/10/09 07:11:04;;;;;;;45.20;9.73;;;;;;;9.21;64.67;100522.84;1596660;87;20962;-66
2021/10/09 07:13:33;;;;;;;30.43;8.48;;;;;;;9.28;63.21;100521.68;1596512;90;21110;-64
2021/10/09 07:16:01;;;;;;;15.10;7.42;;;;;;;9.36;62.40;100524.05;1592013;89;20913;-67
2021/10/09 07:18:34;;;;;;;20.17;7.37;;;;;;;9.46;62.08;100519.88;1591744;90;20938;-68
2021/10/09 07:21:02;;;;;;;20.75;7.03;;;;;;;9.56;61.59;100508.67;1597003;88;21492;-68
2021/10/09 07:23:32;;;;;;;17.15;6.28;;;;;;;;;;1586372;88;20994;-68
2021/10/09 07:26:00;;;;;;;25.88;7.05;;;;;;;9.79;59.29;100512.63;1595961;88;21762;-69
2021/10/09 07:28:28;;;;;;;30.85;7.42;;;;;;;9.89;58.19;100507.09;1596605;88;20984;-68
2021/10/09 07:30:56;;;;;;;17.52;6.20;;;;;;;9.99;57.68;100513.02;1596017;88;20958;-67
2021/10/09 07:33:24;;;;;;;29.50;6.75;;;;;;;10.10;56.76;100519.38;1593162;88;21007;-67
2021/10/09 07:35:52;;;;;;;17.50;6.80;;;;;;;10.21;55.78;100513.00;1595205;88;21472;-69
2021/10/09 07:38:20;;;;;;;18.55;6.22;;;;;;;10.31;54.94;100507.44;1593943;88;21515;-69
2021/10/09 07:40:48;;;;;;;41.35;8.00;;;;;;;10.42;54.62;100510.29;1595389;89;20982;-68
2021/10/09 07:43:16;;;;;;;19.92;5.65;;;;;;;10.53;54.22;100510.03;1595772;88;20965;-68
2021/10/09 07:45:44;;;;;;;20.43;6.00;;;;;;;10.66;53.97;100504.07;1596384;88;21113;-68
2021/10/09 07:48:13;;;;;;;13.80;5.00;;;;;;;10.78;53.36;100507.32;1595138;89;20955;-69
2021/10/09 07:50:41;;;;;;;29.02;7.83;;;;;;;10.87;52.58;100501.73;1599695;88;21437;-69
2021/10/09 07:53:09;;;;;;;22.87;6.50;;;;;;;10.95;51.54;100500.56;1600630;88;21478;-67
2021/10/09 07:55:36;;;;;;;14.05;4.62;;;;;;;11.02;51.16;100502.41;1590094;88;20926;-68
2021/10/09 07:58:04;;;;;;;30.02;6.62;;;;;;;11.14;51.00;100499.94;1590245;89;21418;-68
2021/10/09 08:00:32;;;;;;;34.90;6.90;;;;;;;11.24;50.19;100500.50;1599172;88;21033;-68
2021/10/09 08:03:04;;;;;;;18.98;5.42;;;;;;;11.33;49.45;100500.62;1599463;88;21140;-68
2021/10/09 08:05:33;;;;;;;65.57;9.20;;;;;;;11.43;49.07;100493.72;1599336;88;21486;-68
2021/10/09 08:08:04;;;;;;;18.57;4.67;;;;;;;11.53;48.56;100501.32;1601663;88;20951;-68
2021/10/09 08:10:34;;;;;;;10.45;3.58;;;;;;;11.60;48.35;100498.77;1601196;87;21048;-69
2021/10/09 08:13:01;;;;;;;84.35;8.95;;;;;;;11.70;47.95;100503.71;1585762;89;20895;-68
2021/10/09 08:15:28;;;;;;;60.90;7.65;;;;;;;11.79;47.41;100502.52;1601448;88;21495;-68
2021/10/09 08:17:56;;;;;;;90.60;13.98;;;;;;;11.85;46.84;100502.63;1600410;89;21484;-67
2021/10/09 08:20:24;;;;;;;40.63;5.80;;;;;;;11.92;46.25;100498.28;1601731;88;20912;-68
2021/10/09 08:23:02;;;;;;;46.55;7.12;;;;;;;11.98;45.79;100495.25;1601881;88;20956;-67
2021/10/09 08:36:35;;;;;;;24.00;4.78;;;;;;;12.24;43.63;100494.60;1602001;88;20955;-69
2021/10/09 08:38:53;;;;;;;17.52;4.20;;;;;;;12.20;43.02;100498.09;1600038;88;20942;-68
2021/10/09 08:41:22;;;;;;;14.33;3.40;;;;;;;12.16;42.65;100496.30;1601712;88;21561;-68
2021/10/09 08:43:51;;;;;;;30.45;5.58;;;;;;;12.12;42.42;100499.78;1601795;88;20958;-68
2021/10/09 08:46:19;;;;;;;53.55;6.00;;;;;;;12.11;42.44;100498.02;1602039;88;21465;-68
2021/10/09 08:48:48;;;;;;;24.95;3.83;;;;;;;12.12;42.47;100494.50;1600875;88;20979;-69
2021/10/09 08:51:24;;;;;;;12.03;2.90;;;;;;;12.18;42.59;100500.73;1601321;88;20965;-68
2021/10/09 08:53:53;;;;;;;19.95;3.40;;;;;;;12.25;42.41;100493.29;1599863;87;21068;-64
2021/10/09 08:56:36;;;;;;;20.45;3.22;;;;;;;12.32;42.05;100505.28;1597885;89;20998;-67
2021/10/09 08:59:30;;;;;;;37.05;4.70;;;;;;;12.33;41.70;100500.44;1600934;87;21489;-68
2021/10/09 09:02:17;;;;;;;18.20;3.20;;;;;;;12.36;41.46;100501.78;1598762;88;20959;-67
2021/10/09 09:04:49;;;;;;;45.43;6.65;;;;;;;12.36;41.26;100496.05;1600887;88;21427;-69
2021/10/09 09:40:18;;;;;;;17.77;3.37;;;;;;;12.23;40.79;100495.47;1602034;87;20982;-69
2021/10/09 09:42:49;;;;;;;48.00;8.10;;;;;;;12.29;41.17;100501.70;1601900;87;20942;-68
2021/10/09 09:45:26;;;;;;;40.33;7.40;;;;;;;12.34;41.08;100503.53;1601844;88;21511;-67
2021/10/09 09:47:59;;;;;;;13.30;3.00;;;;;;;12.37;41.10;100499.59;1602035;88;21188;-68
2021/10/09 09:50:28;;;;;;;13.00;3.45;;;;;;;12.41;41.18;100493.01;1601991;88;21521;-67
2021/10/09 09:52:56;;;;;;;9.60;3.37;;;;;;;12.47;41.09;100487.77;1601090;88;21094;-68
2021/10/09 09:55:24;;;;;;;10.50;2.83;;;;;;;12.52;41.08;100488.68;1601771;88;21503;-68
2021/10/09 09:57:53;;;;;;;16.77;2.98;;;;;;;12.54;40.76;100485.61;1601833;88;21474;-67
2021/10/09 10:00:21;;;;;;;7.00;2.35;;;;;;;12.57;40.61;100492.25;1601983;88;21097;-67
2021/10/09 10:02:55;;;;;;;13.90;3.00;;;;;;;12.61;40.54;100485.21;1601798;88;20883;-68
2021/10/09 10:05:29;;;;;;;13.85;2.60;;;;;;;12.64;40.63;100486.99;1600629;88;20950;-68
2021/10/09 10:07:56;;;;;;;9.95;2.52;;;;;;;12.72;41.03;100479.98;1573190;89;21003;-69
2021/10/09 10:10:24;;;;;;;12.68;2.83;;;;;;;12.80;41.07;100477.87;1564601;90;21019;-68
2021/10/09 10:12:56;;;;;;;24.98;2.98;;;;;;;12.89;41.04;100477.92;1571207;90;21139;-68
2021/10/09 10:15:29;;;;;;;10.03;2.58;;;;;;;12.95;40.48;100478.39;1571454;90;20940;-66
2021/10/09 10:17:57;;;;;;;33.37;3.70;;;;;;;13.00;40.18;100466.49;1542486;91;21083;-66
2021/10/09 10:20:44;;;;;;;48.02;6.70;;;;;;;13.03;39.80;100473.12;1542445;92;21032;-69
2021/10/09 10:23:33;;;;;;;64.82;4.87;;;;;;;13.07;39.47;100477.13;1544613;91;21024;-69
2021/10/09 10:26:32;;;;;;;41.35;3.72;;;;;;;13.12;38.89;100474.05;1542579;90;21100;-68
2021/10/09 10:29:15;;;;;;;24.32;3.62;;;;;;;13.17;38.55;100473.67;1548994;92;21545;-69
2021/10/09 10:32:14;;;;;;;22.87;3.92;;;;;;;13.25;38.07;100466.23;1549228;91;21511;-69
2021/10/09 10:34:45;;;;;;;12.60;1.98;;;;;;;13.31;37.74;100466.25;1499017;92;21001;-68
2021/10/09 10:37:35;;;;;;;30.25;3.42;;;;;;;13.35;37.19;100466.70;1572183;89;21035;-67
2021/10/09 10:40:02;;;;;;;10.63;2.17;;;;;;;13.36;36.82;100471.13;1545556;90;21559;-68
2021/10/09 10:42:32;;;;;;;19.12;2.58;;;;;;;13.38;36.70;100469.37;1583367;90;20984;-68
2021/10/09 10:45:15;;;;;;;28.10;3.20;;;;;;;13.38;36.40;100463.63;1568236;90;21091;-66
2021/10/09 10:47:59;;;;;;;102.30;10.80;;;;;;;13.38;36.23;100470.25;1562858;90;21573;-68
2021/10/09 10:50:58;;;;;;;14.75;2.33;;;;;;;13.37;36.03;100466.27;1557757;90;21033;-69
2021/10/09 10:53:35;;;;;;;5.95;1.95;;;;;;;13.34;35.92;100464.94;1570976;91;21488;-69
2021/10/09 10:56:10;;;;;;;8.88;2.00;;;;;;;13.33;35.96;100467.14;1580019;89;20964;-68
2021/10/09 10:58:38;;;;;;;8.95;1.98;;;;;;;13.30;35.91;100468.45;1591923;89;21474;-67
2021/10/09 11:01:24;;;;;;;10.35;2.37;;;;;;;13.27;35.89;100464.47;1591748;89;21019;-67
2021/10/09 11:03:54;;;;;;;4.83;2.10;;;;;;;13.26;35.88;100466.67;1572273;90;21541;-67
2021/10/09 11:06:25;;;;;;;103.47;7.58;;;;;;;13.25;35.87;100462.25;1577265;88;21760;-67
2021/10/09 11:08:56;;;;;;;10.72;2.35;;;;;;;13.25;35.84;100466.23;1597056;88;20885;-67
2021/10/09 11:11:42;;;;;;;19.07;2.85;;;;;;;13.23;35.78;100459.56;1595204;88;21474;-63
2021/10/09 11:14:08;;;;;;;6.90;1.85;;;;;;;13.22;35.81;100461.77;1595798;88;20983;-71
2021/10/09 11:16:36;;;;;;;10.30;1.98;;;;;;;13.21;35.64;100460.88;1592600;88;21549;-71
2021/10/09 11:19:06;;;;;;;14.55;1.98;;;;;;;13.19;35.40;100474.56;1592683;88;21290;-71
2021/10/09 11:21:53;;;;;;;17.77;3.00;;;;;;;13.16;35.14;100471.87;1592223;88;21617;-71
2021/10/09 11:24:22;;;;;;;20.85;3.50;;;;;;;13.09;34.99;100472.72;1592510;88;20924;-70
2021/10/09 11:26:53;;;;;;;13.18;2.85;;;;;;;13.05;34.91;100475.34;1573408;88;20908;-70
2021/10/09 11:29:21;;;;;;;7.85;2.17;;;;;;;12.99;35.01;100478.85;1592453;88;20935;-71
2021/10/09 11:31:53;;;;;;;8.93;2.20;;;;;;;12.97;35.07;100476.63;1593975;89;21185;-72
2021/10/09 11:34:21;;;;;;;10.65;2.70;;;;;;;12.93;35.12;100475.73;1581507;88;20985;-73
2021/10/09 11:36:49;;;;;;;16.70;3.30;;;;;;;12.93;35.27;100472.20;1612510;88;20976;-72
2021/10/09 11:39:21;;;;;;;10.53;2.80;;;;;;;12.90;35.26;100475.72;1597327;88;21493;-70
2021/10/09 11:42:06;;;;;;;31.57;3.30;;;;;;;12.89;35.33;100475.27;1592204;88;21466;-71
2021/10/09 11:44:38;;;;;;;14.95;2.35;;;;;;;12.87;35.33;100474.81;1592976;88;21058;-70
2021/10/09 11:55:21;;;;;;;9.10;2.40;;;;;;;12.83;35.58;100473.91;1600622;89;20916;-69
2021/10/09 11:57:50;;;;;;;11.80;4.17;;;;;;;12.84;35.65;100469.50;1597775;89;21506;-70
2021/10/09 12:00:37;;;;;;;6.20;2.77;;;;;;;12.86;35.82;100475.25;1594676;88;20972;-70
2021/10/09 12:03:33;;;;;;;8.90;3.05;;;;;;;12.86;35.84;100465.98;1598513;87;20881;-69
2021/10/09 12:06:07;;;;;;;18.23;3.50;;;;;;;12.87;35.88;100454.95;1594410;87;21454;-71
2021/10/09 12:08:41;;;;;;;15.78;7.83;;;;;;;12.89;36.09;100464.67;1605036;87;20954;-69
2021/10/09 12:11:29;;;;;;;10.45;4.50;;;;;;;12.94;36.24;100456.75;1601782;87;21139;-69
2021/10/09 12:14:02;;;;;;;18.30;7.97;;;;;;;12.98;36.20;100451.03;1601962;87;20917;-68
2021/10/09 12:16:36;;;;;;;11.03;5.15;;;;;;;13.03;36.17;100450.17;1602046;87;21457;-68
2021/10/09 12:19:11;;;;;;;9.75;3.25;;;;;;;13.09;36.18;100446.67;1602137;87;20987;-68
2021/10/09 12:22:00;;;;;;;17.90;3.55;;;;;;;13.15;36.22;100444.92;1602058;87;20977;-68
2021/10/09 12:24:31;;;;;;;11.15;2.90;;;;;;;13.21;36.15;100439.69;1602109;87;21096;-68
2021/10/09 12:27:05;;;;;;;20.02;3.60;;;;;;;13.30;35.75;100439.30;1601903;87;21537;-65
2021/10/09 12:29:37;;;;;;;25.25;2.87;;;;;;;13.31;35.28;100443.72;1601675;87;20965;-67
2021/10/09 12:32:14;;;;;;;9.95;2.27;;;;;;;13.30;34.93;100432.23;1600635;87;21528;-64
2021/10/09 12:34:42;;;;;;;9.13;2.50;;;;;;;13.28;34.63;100438.41;1602091;87;21031;-67
2021/10/09 12:37:26;;;;;;;14.18;2.72;;;;;;;13.25;34.50;100441.05;1601775;87;21155;-66
2021/10/09 12:40:15;;;;;;;45.90;4.42;;;;;;;13.19;34.47;100438.80;1599357;87;20970;-68
2021/10/09 12:42:51;;;;;;;8.35;2.35;;;;;;;13.15;34.39;100440.95;1599407;88;21516;-69
2021/10/09 12:45:19;;;;;;;5.60;2.00;;;;;;;13.12;34.27;100433.44;1600839;87;20938;-69
2021/10/09 12:47:47;;;;;;;11.33;2.37;;;;;;;13.07;34.26;100434.74;1596954;87;20938;-69
2021/10/09 12:50:15;;;;;;;26.45;3.55;;;;;;;13.02;34.19;100431.19;1601905;87;21142;-70
2021/10/09 12:52:43;;;;;;;10.82;2.85;;;;;;;12.98;34.33;100428.52;1601096;87;20981;-70
2021/10/09 12:55:11;;;;;;;6.80;2.58;;;;;;;12.92;34.41;100435.56;1601500;87;20990;-69
2021/10/09 12:57:49;;;;;;;17.23;3.47;;;;;;;12.91;34.53;100430.25;1601173;87;21461;-69
2021/10/09 13:00:18;;;;;;;8.70;2.83;;;;;;;12.87;34.61;100433.33;1601094;89;20926;-69
2021/10/09 13:02:45;;;;;;;8.45;2.80;;;;;;;12.84;34.72;100433.75;1602097;87;21048;-68
2021/10/09 13:05:13;;;;;;;8.95;2.87;;;;;;;12.78;34.82;100431.95;1598510;87;21080;-70
2021/10/09 13:07:42;;;;;;;7.85;3.22;;;;;;;12.76;34.98;100432.36;1596905;87;21468;-70
2021/10/09 13:10:11;;;;;;;41.05;4.83;;;;;;;12.74;35.00;100444.70;1599339;89;21491;-69
2021/10/09 13:12:40;;;;;;;9.30;3.80;;;;;;;12.72;35.19;100435.86;1598466;89;20913;-70
2021/10/09 13:15:08;;;;;;;6.10;2.90;;;;;;;12.71;35.33;100430.13;1598454;88;21111;-69
2021/10/09 13:17:37;;;;;;;8.55;2.98;;;;;;;12.69;35.35;100430.98;1599347;88;21431;-69
2021/10/09 13:20:06;;;;;;;8.45;2.47;;;;;;;12.64;35.22;100435.38;1594691;89;20913;-68
2021/10/09 13:22:33;;;;;;;8.90;2.65;;;;;;;12.56;35.15;100430.92;1598873;89;20913;-69
2021/10/09 13:25:01;;;;;;;6.35;2.40;;;;;;;12.51;34.94;100432.66;1600554;89;20965;-69
2021/10/09 13:27:28;;;;;;;4.87;2.50;;;;;;;12.45;34.90;100431.73;1601489;89;21844;-69
2021/10/09 13:29:56;;;;;;;9.18;2.70;;;;;;;12.39;34.84;100425.95;1598196;88;21537;-69
2021/10/09 13:32:23;;;;;;;7.75;2.62;;;;;;;12.38;34.88;100431.23;1598393;88;20925;-69
2021/10/09 13:34:51;;;;;;;8.75;3.10;;;;;;;12.36;34.92;100431.23;1594978;89;20986;-69
2021/10/09 13:37:23;;;;;;;29.77;3.30;;;;;;;12.34;35.02;100436.06;1597159;89;21024;-67
2021/10/09 13:39:56;;;;;;;9.08;3.05;;;;;;;12.34;35.15;100429.01;1599701;89;21541;-69